Time;durP1;ratioP1;P1;durP2;ratioP2;P2;SDS_P1;SDS_P2;PMS_P1;PMS_P2;Temp;Humidity;BMP_temperature;BMP_pressure;BME280_temperature;BME280_humidity;BME280_pressure;Samples;Min_cycle;Max_cycle;Signal;HPM_P1;HPM_P2
2023/07/25 00:00:29;;;;;;;0.70;0.60;;;;;;;;;;5067349;28;20024;-76
2023/07/25 00:02:55;;;;;;;0.98;0.80;;;;;;;;;;5055244;28;20047;-76
2023/07/25 00:05:21;;;;;;;0.90;0.90;;;;;;;;;;5063446;28;20032;-76
2023/07/25 00:07:47;;;;;;;0.85;0.70;;;;;;;;;;5067262;28;20021;-76
2023/07/25 00:10:13;;;;;;;0.70;0.68;;;;;;;;;;5066281;28;20403;-76
2023/07/25 00:12:39;;;;;;;0.95;0.90;;;;;;;;;;5066629;28;20020;-75
2023/07/25 00:15:06;;;;;;;1.92;0.80;;;;;;;;;;5063752;28;20036;-76
2023/07/25 00:17:32;;;;;;;0.80;0.57;;;;;;;;;;5067442;28;20044;-76
2023/07/25 00:19:58;;;;;;;2.00;1.13;;;;;;;;;;5066844;28;20087;-76
2023/07/25 00:22:24;;;;;;;1.20;0.80;;;;;;;;;;5067065;28;20102;-75
2023/07/25 00:24:50;;;;;;;0.90;0.80;;;;;;;;;;5066532;28;20028;-76
2023/07/25 00:27:16;;;;;;;0.93;0.80;;;;;;;;;;5067848;28;20032;-76
2023/07/25 00:29:42;;;;;;;0.85;0.70;;;;;;;;;;5067010;28;20049;-76
2023/07/25 00:32:08;;;;;;;2.67;1.45;;;;;;;;;;5067798;28;20029;-76
2023/07/25 00:34:34;;;;;;;0.77;0.60;;;;;;;;;;5068213;28;20028;-76
2023/07/25 00:37:00;;;;;;;1.25;0.85;;;;;;;;;;5066630;28;20032;-76
2023/07/25 00:39:26;;;;;;;0.80;0.70;;;;;;;;;;5073450;28;20193;-76
2023/07/25 00:41:52;;;;;;;1.98;0.60;;;;;;;;;;5066915;28;20037;-75
2023/07/25 00:44:18;;;;;;;1.02;0.80;;;;;;;;;;5066864;28;20063;-75
2023/07/25 00:46:44;;;;;;;0.82;0.70;;;;;;;;;;5067030;28;20028;-76
2023/07/25 00:49:10;;;;;;;0.63;0.60;;;;;;;;;;5068608;28;20032;-76
2023/07/25 00:51:36;;;;;;;2.05;0.75;;;;;;;;;;5070547;28;20024;-75
2023/07/25 00:54:02;;;;;;;0.60;0.60;;;;;;;;;;5066219;28;20036;-76
2023/07/25 00:56:28;;;;;;;0.98;0.88;;;;;;;;;;5066800;28;20391;-76
2023/07/25 00:58:57;;;;;;;2.25;0.90;;;;;;;;;;5068296;28;20024;-76
2023/07/25 01:01:23;;;;;;;1.20;0.73;;;;;;;;;;5067399;28;20031;-76
2023/07/25 01:03:50;;;;;;;1.35;0.70;;;;;;;;;;5067253;28;20036;-75
2023/07/25 01:06:17;;;;;;;1.77;0.60;;;;;;;;;;5067808;28;20029;-76
2023/07/25 01:08:50;;;;;;;1.02;0.77;;;;;;;;;;5068272;28;20488;-75
2023/07/25 01:11:16;;;;;;;1.02;0.93;;;;;;;;;;5066400;28;20048;-76
2023/07/25 01:13:42;;;;;;;0.98;0.98;;;;;;;;;;5065000;28;20033;-76
2023/07/25 01:16:10;;;;;;;0.85;0.60;;;;;;;;;;5068912;28;20085;-76
2023/07/25 01:18:36;;;;;;;0.52;0.50;;;;;;;;;;5067614;28;20705;-76
2023/07/25 01:21:03;;;;;;;0.68;0.60;;;;;;;;;;5066938;28;20152;-76
2023/07/25 01:23:29;;;;;;;1.00;0.95;;;;;;;;;;5067401;28;20070;-76
2023/07/25 01:25:55;;;;;;;0.68;0.68;;;;;;;;;;5065682;28;20522;-76
2023/07/25 01:28:21;;;;;;;0.57;0.57;;;;;;;;;;5066802;28;20044;-77
2023/07/25 01:30:47;;;;;;;1.15;0.60;;;;;;;;;;5065616;28;20032;-76
2023/07/25 01:33:13;;;;;;;0.60;0.57;;;;;;;;;;5067083;28;20035;-76
2023/07/25 01:35:39;;;;;;;0.50;0.50;;;;;;;;;;5066218;28;20401;-75
2023/07/25 01:38:05;;;;;;;0.70;0.68;;;;;;;;;;5066927;28;20032;-76
2023/07/25 01:40:31;;;;;;;0.63;0.60;;;;;;;;;;5063928;28;20036;-76
2023/07/25 01:42:57;;;;;;;0.80;0.75;;;;;;;;;;5065622;28;20033;-75
2023/07/25 01:45:23;;;;;;;1.50;0.70;;;;;;;;;;5067158;28;20383;-75
2023/07/25 01:47:49;;;;;;;0.73;0.73;;;;;;;;;;5065226;28;20445;-76
2023/07/25 01:50:15;;;;;;;1.02;0.70;;;;;;;;;;5061916;28;20033;-75
2023/07/25 01:52:41;;;;;;;1.15;0.80;;;;;;;;;;5065153;28;20391;-76
2023/07/25 01:55:07;;;;;;;0.60;0.60;;;;;;;;;;5066660;28;20048;-76
2023/07/25 01:57:33;;;;;;;1.80;0.70;;;;;;;;;;5066624;28;20107;-76
2023/07/25 02:00:00;;;;;;;0.88;0.73;;;;;;;;;;5067109;28;20028;-76
2023/07/25 02:02:26;;;;;;;1.30;0.90;;;;;;;;;;5057012;28;20036;-76
2023/07/25 02:04:52;;;;;;;1.00;0.85;;;;;;;;;;5065514;28;20025;-75
2023/07/25 02:07:17;;;;;;;1.10;0.98;;;;;;;;;;5066352;28;20490;-76
2023/07/25 02:09:43;;;;;;;1.75;0.90;;;;;;;;;;5067079;28;20459;-76
2023/07/25 02:12:09;;;;;;;1.33;0.90;;;;;;;;;;5068180;28;20104;-75
2023/07/25 02:14:35;;;;;;;1.58;1.00;;;;;;;;;;5066475;28;20052;-75
2023/07/25 02:17:01;;;;;;;0.68;0.63;;;;;;;;;;5066490;28;20575;-75
2023/07/25 02:19:27;;;;;;;1.08;0.70;;;;;;;;;;5070796;28;20127;-75
2023/07/25 02:21:53;;;;;;;0.82;0.70;;;;;;;;;;5069738;28;20028;-76
2023/07/25 02:24:19;;;;;;;1.15;1.00;;;;;;;;;;5069159;28;20032;-76
2023/07/25 02:26:45;;;;;;;0.73;0.73;;;;;;;;;;5069218;28;20051;-76
2023/07/25 02:29:11;;;;;;;0.85;0.80;;;;;;;;;;5070397;28;20403;-75
2023/07/25 02:31:37;;;;;;;0.65;0.65;;;;;;;;;;5070370;28;20055;-75
2023/07/25 02:34:03;;;;;;;0.98;0.70;;;;;;;;;;5068624;28;20029;-76
2023/07/25 02:36:29;;;;;;;0.70;0.60;;;;;;;;;;5070586;28;20024;-77
2023/07/25 02:38:55;;;;;;;0.70;0.70;;;;;;;;;;5069244;28;20028;-76
2023/07/25 02:41:21;;;;;;;0.60;0.60;;;;;;;;;;5069339;28;20054;-75
2023/07/25 02:43:47;;;;;;;1.25;0.85;;;;;;;;;;5066513;28;20442;-76
2023/07/25 02:46:13;;;;;;;0.93;0.70;;;;;;;;;;5070423;28;20025;-75
2023/07/25 02:48:39;;;;;;;1.55;0.68;;;;;;;;;;5069788;28;20024;-77
2023/07/25 02:51:05;;;;;;;0.82;0.70;;;;;;;;;;5070900;28;20036;-76
2023/07/25 02:53:31;;;;;;;1.23;0.98;;;;;;;;;;5070067;28;20032;-76
2023/07/25 02:55:57;;;;;;;0.80;0.80;;;;;;;;;;5071304;28;20035;-76
2023/07/25 02:58:23;;;;;;;1.05;0.80;;;;;;;;;;5075907;28;20054;-76
2023/07/25 03:00:49;;;;;;;0.93;0.70;;;;;;;;;;5070193;28;20067;-76
2023/07/25 03:03:15;;;;;;;0.90;0.80;;;;;;;;;;5070318;28;20449;-76
2023/07/25 03:05:41;;;;;;;0.60;0.60;;;;;;;;;;5069272;28;20025;-76
2023/07/25 03:08:07;;;;;;;1.02;0.70;;;;;;;;;;5071366;28;20035;-76
2023/07/25 03:10:33;;;;;;;0.93;0.75;;;;;;;;;;5070217;28;20059;-76
2023/07/25 03:12:59;;;;;;;1.10;0.90;;;;;;;;;;5070660;28;20031;-76
2023/07/25 03:15:25;;;;;;;0.80;0.80;;;;;;;;;;5064589;28;20024;-76
2023/07/25 03:17:51;;;;;;;3.13;0.68;;;;;;;;;;5068012;28;20526;-76
2023/07/25 03:20:17;;;;;;;1.85;0.82;;;;;;;;;;5070489;28;20028;-76
2023/07/25 03:22:43;;;;;;;0.70;0.70;;;;;;;;;;5070498;28;20032;-76
2023/07/25 03:25:09;;;;;;;0.93;0.70;;;;;;;;;;5069059;28;21242;-76
2023/07/25 03:27:36;;;;;;;1.05;0.88;;;;;;;;;;5064979;28;20504;-74
2023/07/25 03:30:02;;;;;;;0.70;0.70;;;;;;;;;;5070009;28;20198;-76
2023/07/25 03:32:28;;;;;;;1.52;0.75;;;;;;;;;;5069857;28;20471;-75
2023/07/25 03:34:54;;;;;;;0.95;0.70;;;;;;;;;;5070869;28;20025;-76
2023/07/25 03:37:19;;;;;;;0.70;0.70;;;;;;;;;;5070282;28;20751;-75
2023/07/25 03:39:45;;;;;;;0.70;0.60;;;;;;;;;;5071020;28;20032;-75
2023/07/25 03:42:11;;;;;;;0.77;0.77;;;;;;;;;;5069339;28;20028;-76
2023/07/25 03:44:37;;;;;;;0.93;0.70;;;;;;;;;;5070106;28;20023;-76
2023/07/25 03:47:03;;;;;;;0.88;0.75;;;;;;;;;;5067346;28;20020;-75
2023/07/25 03:49:29;;;;;;;2.15;0.93;;;;;;;;;;5068573;28;20033;-76
2023/07/25 03:51:55;;;;;;;1.15;0.88;;;;;;;;;;5068649;28;20391;-76
2023/07/25 03:54:23;;;;;;;1.58;0.82;;;;;;;;;;5069988;28;20028;-76
2023/07/25 03:56:50;;;;;;;1.23;0.93;;;;;;;;;;5069639;28;20032;-75
2023/07/25 03:59:16;;;;;;;1.15;0.90;;;;;;;;;;5064984;28;20031;-76
2023/07/25 04:01:42;;;;;;;1.67;1.17;;;;;;;;;;5068757;28;20021;-76
2023/07/25 04:04:08;;;;;;;1.42;0.90;;;;;;;;;;5070481;28;20020;-76
2023/07/25 04:06:34;;;;;;;1.55;0.80;;;;;;;;;;5068958;28;20150;-76
2023/07/25 04:09:00;;;;;;;0.80;0.80;;;;;;;;;;5068772;28;20040;-76
2023/07/25 04:11:26;;;;;;;0.80;0.80;;;;;;;;;;5077165;28;20024;-76
2023/07/25 04:13:52;;;;;;;1.25;0.88;;;;;;;;;;5070395;28;20036;-76
2023/07/25 04:16:18;;;;;;;0.77;0.77;;;;;;;;;;5070065;28;20020;-76
2023/07/25 04:18:44;;;;;;;1.00;0.90;;;;;;;;;;5067716;28;20029;-76
2023/07/25 04:21:10;;;;;;;0.85;0.63;;;;;;;;;;5068562;28;20025;-76
2023/07/25 04:23:36;;;;;;;0.90;0.85;;;;;;;;;;5068903;28;20383;-76
2023/07/25 04:26:02;;;;;;;1.00;0.90;;;;;;;;;;5075325;28;20024;-76
2023/07/25 04:28:28;;;;;;;0.80;0.80;;;;;;;;;;5068059;28;20040;-76
2023/07/25 04:30:54;;;;;;;0.73;0.70;;;;;;;;;;5068328;28;20028;-76
2023/07/25 04:33:20;;;;;;;0.93;0.77;;;;;;;;;;5074883;28;20410;-76
2023/07/25 04:35:46;;;;;;;1.08;0.75;;;;;;;;;;5069066;28;20033;-76
2023/07/25 04:38:12;;;;;;;1.75;0.90;;;;;;;;;;5067800;28;20433;-76
2023/07/25 04:40:39;;;;;;;0.68;0.68;;;;;;;;;;5066828;28;20048;-76
2023/07/25 04:43:04;;;;;;;2.40;0.88;;;;;;;;;;5072437;28;20038;-75
2023/07/25 04:45:30;;;;;;;0.60;0.57;;;;;;;;;;5057869;28;20021;-76
2023/07/25 04:48:06;;;;;;;0.80;0.73;;;;;;;;;;5060178;28;20017;-76
2023/07/25 04:50:32;;;;;;;0.95;0.80;;;;;;;;;;5063722;28;20074;-76
2023/07/25 04:52:58;;;;;;;1.00;0.90;;;;;;;;;;5075544;28;20410;-76
2023/07/25 04:55:24;;;;;;;0.85;0.75;;;;;;;;;;5074880;28;20475;-75
2023/07/25 04:57:50;;;;;;;0.77;0.73;;;;;;;;;;5068438;28;20375;-76
2023/07/25 05:00:16;;;;;;;0.85;0.85;;;;;;;;;;5067588;28;20036;-75
2023/07/25 05:02:42;;;;;;;1.38;1.10;;;;;;;;;;5065850;28;20084;-76
2023/07/25 05:05:08;;;;;;;1.10;0.70;;;;;;;;;;5068597;28;20036;-76
2023/07/25 05:07:34;;;;;;;0.68;0.68;;;;;;;;;;5067409;28;20368;-75
2023/07/25 05:10:00;;;;;;;1.08;0.98;;;;;;;;;;5067595;28;20027;-76
2023/07/25 05:12:26;;;;;;;0.98;0.80;;;;;;;;;;5068408;28;20028;-76
2023/07/25 05:14:52;;;;;;;1.77;0.80;;;;;;;;;;5067634;28;20043;-75
2023/07/25 05:17:18;;;;;;;0.70;0.68;;;;;;;;;;5067288;28;20048;-76
2023/07/25 05:19:44;;;;;;;1.42;0.85;;;;;;;;;;5067504;28;20482;-76
2023/07/25 05:22:10;;;;;;;0.77;0.70;;;;;;;;;;5068082;28;20485;-76
2023/07/25 05:24:36;;;;;;;0.70;0.70;;;;;;;;;;5067430;28;20032;-76
2023/07/25 05:27:02;;;;;;;1.05;0.90;;;;;;;;;;5065783;28;20029;-76
2023/07/25 05:29:28;;;;;;;0.57;0.57;;;;;;;;;;5066410;28;20051;-76
2023/07/25 05:31:54;;;;;;;1.15;0.90;;;;;;;;;;5067123;28;20025;-76
2023/07/25 05:34:20;;;;;;;0.45;0.45;;;;;;;;;;5070220;28;20728;-76
2023/07/25 05:36:46;;;;;;;1.23;1.02;;;;;;;;;;5072417;28;20028;-75
2023/07/25 05:39:12;;;;;;;3.90;0.82;;;;;;;;;;5066828;28;20021;-76
2023/07/25 05:41:39;;;;;;;0.60;0.60;;;;;;;;;;5068731;28;20021;-76
2023/07/25 05:44:05;;;;;;;0.93;0.88;;;;;;;;;;5066609;28;20033;-76
2023/07/25 05:46:31;;;;;;;1.48;0.98;;;;;;;;;;5068772;28;20021;-77
2023/07/25 05:48:57;;;;;;;0.77;0.77;;;;;;;;;;5066656;28;20062;-76
2023/07/25 05:51:23;;;;;;;0.60;0.60;;;;;;;;;;5067214;28;20032;-76
2023/07/25 05:53:49;;;;;;;1.85;0.60;;;;;;;;;;5081717;28;20036;-75
2023/07/25 05:56:15;;;;;;;0.65;0.55;;;;;;;;;;5066629;28;20036;-76
2023/07/25 05:58:41;;;;;;;0.90;0.57;;;;;;;;;;5067513;28;20036;-76
2023/07/25 06:01:07;;;;;;;1.38;0.77;;;;;;;;;;5065425;28;20029;-77
2023/07/25 06:03:33;;;;;;;1.65;0.77;;;;;;;;;;5069238;28;20391;-76
2023/07/25 06:05:59;;;;;;;0.88;0.80;;;;;;;;;;5065531;28;20013;-76
2023/07/25 06:08:25;;;;;;;0.52;0.52;;;;;;;;;;5076299;28;20020;-76
2023/07/25 06:10:51;;;;;;;0.60;0.60;;;;;;;;;;5068002;28;20024;-76
2023/07/25 06:13:17;;;;;;;0.85;0.68;;;;;;;;;;5068190;28;20024;-76
2023/07/25 06:15:44;;;;;;;0.82;0.80;;;;;;;;;;5068340;28;20078;-76
2023/07/25 06:18:10;;;;;;;0.70;0.70;;;;;;;;;;5061323;28;20115;-76
2023/07/25 06:20:35;;;;;;;0.82;0.60;;;;;;;;;;5065498;28;20043;-76
2023/07/25 06:23:02;;;;;;;0.93;0.70;;;;;;;;;;5066905;28;20033;-73
2023/07/25 06:25:28;;;;;;;0.60;0.60;;;;;;;;;;5066937;28;20024;-73
2023/07/25 06:27:54;;;;;;;0.80;0.70;;;;;;;;;;5067883;28;20035;-77
2023/07/25 06:30:20;;;;;;;0.60;0.60;;;;;;;;;;5067596;28;20035;-77
2023/07/25 06:32:46;;;;;;;2.10;0.68;;;;;;;;;;5065714;28;20437;-82
2023/07/25 06:35:12;;;;;;;0.50;0.50;;;;;;;;;;5068072;28;20039;-81
2023/07/25 06:37:39;;;;;;;1.00;0.77;;;;;;;;;;5065313;28;20036;-81
2023/07/25 06:40:05;;;;;;;1.17;0.70;;;;;;;;;;5070663;28;20090;-84
2023/07/25 06:42:31;;;;;;;1.55;0.65;;;;;;;;;;5068115;28;20104;-80
2023/07/25 06:44:57;;;;;;;0.75;0.68;;;;;;;;;;5062936;28;20020;-81
2023/07/25 06:47:23;;;;;;;0.60;0.60;;;;;;;;;;5068164;28;20020;-83
2023/07/25 06:49:49;;;;;;;0.60;0.60;;;;;;;;;;5066920;28;20021;-83
2023/07/25 06:52:15;;;;;;;1.02;0.93;;;;;;;;;;5067273;28;20867;-82
2023/07/25 06:54:41;;;;;;;0.68;0.68;;;;;;;;;;5068247;28;20046;-82
2023/07/25 06:57:08;;;;;;;1.05;0.88;;;;;;;;;;5068078;28;20036;-81
2023/07/25 06:59:33;;;;;;;0.52;0.52;;;;;;;;;;5067334;28;20024;-78
2023/07/25 07:01:59;;;;;;;0.90;0.80;;;;;;;;;;5063344;28;20024;-81
2023/07/25 07:04:25;;;;;;;0.50;0.50;;;;;;;;;;5071260;28;20524;-76
2023/07/25 07:06:51;;;;;;;0.57;0.57;;;;;;;;;;5073643;28;20032;-75
2023/07/25 07:09:17;;;;;;;0.70;0.70;;;;;;;;;;5075212;28;20048;-75
2023/07/25 07:11:44;;;;;;;0.50;0.50;;;;;;;;;;5074088;28;20096;-75
2023/07/25 07:14:10;;;;;;;0.60;0.60;;;;;;;;;;5070706;28;20063;-75
2023/07/25 07:16:36;;;;;;;0.65;0.65;;;;;;;;;;5070378;28;20230;-75
2023/07/25 07:19:02;;;;;;;0.70;0.70;;;;;;;;;;5086320;28;20028;-75
2023/07/25 07:21:28;;;;;;;1.27;0.70;;;;;;;;;;5070680;28;20035;-74
2023/07/25 07:23:54;;;;;;;0.93;0.85;;;;;;;;;;5069553;28;20029;-74
2023/07/25 07:26:20;;;;;;;1.17;0.93;;;;;;;;;;5069802;28;20033;-74
2023/07/25 07:28:46;;;;;;;0.63;0.60;;;;;;;;;;5074334;28;20048;-74
2023/07/25 07:31:12;;;;;;;0.73;0.73;;;;;;;;;;5071224;28;20028;-72
2023/07/25 07:33:39;;;;;;;1.63;0.73;;;;;;;;;;5070399;28;20025;-74
2023/07/25 07:36:05;;;;;;;1.20;0.82;;;;;;;;;;5068280;28;20681;-75
2023/07/25 07:38:31;;;;;;;1.20;1.00;;;;;;;;;;5075428;28;20021;-76
2023/07/25 07:40:57;;;;;;;0.70;0.68;;;;;;;;;;5070704;28;20540;-73
2023/07/25 07:43:23;;;;;;;1.67;0.75;;;;;;;;;;5069007;28;20050;-74
2023/07/25 07:45:49;;;;;;;0.88;0.77;;;;;;;;;;5064389;28;20036;-76
2023/07/25 07:48:16;;;;;;;0.73;0.73;;;;;;;;;;5070187;28;20028;-75
2023/07/25 07:50:43;;;;;;;0.60;0.60;;;;;;;;;;5072382;28;20028;-82
2023/07/25 07:53:09;;;;;;;0.80;0.80;;;;;;;;;;5066473;28;20593;-72
2023/07/25 07:55:41;;;;;;;0.95;0.85;;;;;;;;;;5067255;28;20100;-72
2023/07/25 07:58:07;;;;;;;0.65;0.57;;;;;;;;;;5063704;28;20035;-72
2023/07/25 08:00:33;;;;;;;0.73;0.70;;;;;;;;;;5077949;28;20024;-73
2023/07/25 08:02:59;;;;;;;1.67;0.63;;;;;;;;;;5076103;28;20027;-72
2023/07/25 08:05:25;;;;;;;1.00;0.90;;;;;;;;;;5083737;28;20099;-73
2023/07/25 08:07:51;;;;;;;1.67;1.23;;;;;;;;;;5069729;28;20051;-74
2023/07/25 08:10:17;;;;;;;1.85;1.02;;;;;;;;;;5070345;28;20479;-73
2023/07/25 08:12:43;;;;;;;1.63;0.70;;;;;;;;;;5070468;28;20017;-72
2023/07/25 08:15:09;;;;;;;0.90;0.65;;;;;;;;;;5069238;28;20029;-72
2023/07/25 08:17:35;;;;;;;0.70;0.70;;;;;;;;;;5074411;28;20017;-73
2023/07/25 08:20:01;;;;;;;0.95;0.80;;;;;;;;;;5069546;28;20494;-72
2023/07/25 08:22:27;;;;;;;1.00;0.80;;;;;;;;;;5070092;28;20040;-73
2023/07/25 08:24:53;;;;;;;0.63;0.63;;;;;;;;;;5070351;28;20037;-73
2023/07/25 08:27:22;;;;;;;1.38;0.90;;;;;;;;;;5071845;28;20029;-73
2023/07/25 08:29:49;;;;;;;1.70;0.63;;;;;;;;;;5070020;28;20040;-72
2023/07/25 08:32:15;;;;;;;0.80;0.80;;;;;;;;;;5083150;28;20032;-72
2023/07/25 08:34:41;;;;;;;0.80;0.80;;;;;;;;;;5074766;28;20055;-72
2023/07/25 08:37:07;;;;;;;1.90;0.90;;;;;;;;;;5069951;28;20020;-73
2023/07/25 08:39:34;;;;;;;1.17;1.00;;;;;;;;;;5068051;28;20056;-75
2023/07/25 08:42:04;;;;;;;0.52;0.52;;;;;;;;;;5069084;28;20032;-84
2023/07/25 08:44:32;;;;;;;2.60;0.90;;;;;;;;;;5081854;28;20016;-80
2023/07/25 08:46:59;;;;;;;1.38;0.60;;;;;;;;;;5085550;28;20024;-85
2023/07/25 08:49:28;;;;;;;0.60;0.60;;;;;;;;;;5081473;28;20059;-83
2023/07/25 08:51:55;;;;;;;2.00;0.90;;;;;;;;;;5075410;28;20021;-76
2023/07/25 08:54:28;;;;;;;1.17;0.80;;;;;;;;;;5069670;28;20027;-76
2023/07/25 08:56:55;;;;;;;2.88;0.93;;;;;;;;;;5065884;28;20028;-76
2023/07/25 08:59:21;;;;;;;1.25;0.65;;;;;;;;;;5068301;28;20036;-75
2023/07/25 09:01:47;;;;;;;0.73;0.73;;;;;;;;;;5068048;28;20031;-76
2023/07/25 09:04:14;;;;;;;1.20;0.82;;;;;;;;;;5075888;28;20040;-76
2023/07/25 09:06:40;;;;;;;0.70;0.70;;;;;;;;;;5057002;28;20025;-76
2023/07/25 09:09:07;;;;;;;0.60;0.60;;;;;;;;;;5069324;28;20471;-76
2023/07/25 09:11:36;;;;;;;1.02;0.75;;;;;;;;;;5082249;28;20055;-76
2023/07/25 09:14:02;;;;;;;1.08;0.90;;;;;;;;;;5072401;28;20024;-77
2023/07/25 09:16:28;;;;;;;3.45;1.00;;;;;;;;;;5069299;28;20471;-76
2023/07/25 09:18:54;;;;;;;0.70;0.70;;;;;;;;;;5063488;28;20025;-76
2023/07/25 09:21:20;;;;;;;0.55;0.55;;;;;;;;;;5064199;28;20479;-76
2023/07/25 09:23:53;;;;;;;2.95;1.08;;;;;;;;;;5065765;28;20020;-76
2023/07/25 09:26:21;;;;;;;0.52;0.52;;;;;;;;;;5066079;28;20089;-77
2023/07/25 09:28:53;;;;;;;0.50;0.50;;;;;;;;;;5065488;28;20055;-77
2023/07/25 09:31:46;;;;;;;0.77;0.50;;;;;;;;;;5063989;28;20100;-76
2023/07/25 09:34:16;;;;;;;0.50;0.50;;;;;;;;;;5064185;28;20052;-74
2023/07/25 09:36:45;;;;;;;0.73;0.73;;;;;;;;;;5066653;28;20533;-75
2023/07/25 09:39:11;;;;;;;0.90;0.70;;;;;;;;;;5066717;28;20132;-76
2023/07/25 09:41:37;;;;;;;0.40;0.40;;;;;;;;;;5067070;28;20025;-76
2023/07/25 09:44:05;;;;;;;0.65;0.60;;;;;;;;;;5066790;28;20047;-76
2023/07/25 09:46:37;;;;;;;1.38;0.68;;;;;;;;;;5066810;28;20071;-75
2023/07/25 09:49:03;;;;;;;1.40;0.90;;;;;;;;;;5064644;28;20028;-75
2023/07/25 09:51:29;;;;;;;0.95;0.68;;;;;;;;;;5081532;28;20032;-75
2023/07/25 09:53:55;;;;;;;0.50;0.50;;;;;;;;;;5075159;28;20024;-75
2023/07/25 09:56:22;;;;;;;0.50;0.50;;;;;;;;;;5076923;28;20035;-76
2023/07/25 09:58:51;;;;;;;0.57;0.57;;;;;;;;;;5068761;28;20024;-76
2023/07/25 10:01:18;;;;;;;0.80;0.80;;;;;;;;;;5068396;28;20067;-76
2023/07/25 10:03:44;;;;;;;0.80;0.73;;;;;;;;;;5068633;28;20063;-76
2023/07/25 10:06:10;;;;;;;0.60;0.60;;;;;;;;;;5067257;28;20028;-76
2023/07/25 10:08:39;;;;;;;0.82;0.77;;;;;;;;;;5074041;28;20032;-76
2023/07/25 10:11:05;;;;;;;0.63;0.60;;;;;;;;;;5081976;28;20035;-77
2023/07/25 10:13:34;;;;;;;0.82;0.68;;;;;;;;;;5081150;28;20024;-76
2023/07/25 10:16:01;;;;;;;0.75;0.60;;;;;;;;;;5068203;28;20485;-76
2023/07/25 10:18:32;;;;;;;0.77;0.73;;;;;;;;;;5068043;28;20052;-76
2023/07/25 10:20:58;;;;;;;0.68;0.68;;;;;;;;;;5076776;28;20025;-75
2023/07/25 10:23:29;;;;;;;3.15;0.60;;;;;;;;;;5067988;28;20016;-76
2023/07/25 10:25:55;;;;;;;;;;;;;;;;;;5068984;28;20447;-77
2023/07/25 10:28:22;;;;;;;1.05;0.90;;;;;;;;;;5066959;28;19920;-77
2023/07/25 10:30:48;;;;;;;0.63;0.63;;;;;;;;;;5071748;28;20016;-76
2023/07/25 10:33:15;;;;;;;0.60;0.60;;;;;;;;;;5069035;28;20218;-76
2023/07/25 10:35:54;;;;;;;0.98;0.70;;;;;;;;;;5068264;28;20107;-76
2023/07/25 10:38:42;;;;;;;0.60;0.50;;;;;;;;;;5056629;28;20029;-76
2023/07/25 10:41:11;;;;;;;0.70;0.70;;;;;;;;;;5070943;28;20089;-76
2023/07/25 10:43:43;;;;;;;0.60;0.60;;;;;;;;;;5071642;28;20024;-76
2023/07/25 10:46:12;;;;;;;1.63;0.88;;;;;;;;;;5071982;28;20039;-75
2023/07/25 10:48:44;;;;;;;0.50;0.50;;;;;;;;;;5071746;28;20471;-76
2023/07/25 10:51:10;;;;;;;0.65;0.60;;;;;;;;;;5077012;28;20029;-76
2023/07/25 10:53:36;;;;;;;1.20;0.65;;;;;;;;;;5071553;28;20090;-76
2023/07/25 10:56:06;;;;;;;0.50;0.50;;;;;;;;;;5072286;28;20032;-76
2023/07/25 10:58:33;;;;;;;0.65;0.55;;;;;;;;;;5071467;28;20032;-76
2023/07/25 11:00:59;;;;;;;0.57;0.52;;;;;;;;;;5076318;28;20074;-76
2023/07/25 11:03:31;;;;;;;0.60;0.60;;;;;;;;;;5077389;28;20029;-75
2023/07/25 11:06:06;;;;;;;1.65;0.60;;;;;;;;;;5071512;28;20020;-75
2023/07/25 11:08:36;;;;;;;0.85;0.68;;;;;;;;;;5071299;28;20115;-76
2023/07/25 11:11:03;;;;;;;0.47;0.47;;;;;;;;;;5073212;28;20020;-76
2023/07/25 11:13:29;;;;;;;0.60;0.60;;;;;;;;;;5079860;28;20372;-76
2023/07/25 11:15:56;;;;;;;0.50;0.50;;;;;;;;;;5071536;28;20024;-75
2023/07/25 11:18:22;;;;;;;0.45;0.45;;;;;;;;;;5066107;28;20028;-76
2023/07/25 11:21:01;;;;;;;0.70;0.63;;;;;;;;;;5069251;28;20035;-76
2023/07/25 11:23:27;;;;;;;0.60;0.60;;;;;;;;;;5069157;28;20041;-76
2023/07/25 11:25:54;;;;;;;1.27;0.50;;;;;;;;;;5069537;28;20078;-76
2023/07/25 11:28:21;;;;;;;0.40;0.40;;;;;;;;;;5068994;28;20045;-76
2023/07/25 11:30:47;;;;;;;0.70;0.70;;;;;;;;;;5070673;28;20382;-76
2023/07/25 11:33:13;;;;;;;0.60;0.60;;;;;;;;;;5068434;28;20093;-76
2023/07/25 11:35:48;;;;;;;1.13;0.68;;;;;;;;;;5068802;28;20031;-77
2023/07/25 11:38:14;;;;;;;1.05;0.70;;;;;;;;;;5067843;28;20052;-76
2023/07/25 11:40:41;;;;;;;0.85;0.70;;;;;;;;;;5069007;28;20037;-76
2023/07/25 11:43:11;;;;;;;0.80;0.75;;;;;;;;;;5059372;28;20487;-76
2023/07/25 11:45:37;;;;;;;0.60;0.60;;;;;;;;;;5068951;28;20050;-76
2023/07/25 11:48:06;;;;;;;0.73;0.73;;;;;;;;;;5067032;28;20110;-76
2023/07/25 11:50:32;;;;;;;0.50;0.50;;;;;;;;;;5069309;28;20103;-77
2023/07/25 11:52:59;;;;;;;0.50;0.50;;;;;;;;;;5070811;28;20063;-76
2023/07/25 11:55:26;;;;;;;0.73;0.70;;;;;;;;;;5070636;28;20135;-76
2023/07/25 11:57:53;;;;;;;0.98;0.45;;;;;;;;;;5070646;28;20394;-76
2023/07/25 12:00:19;;;;;;;0.50;0.50;;;;;;;;;;5070314;28;20043;-76
2023/07/25 12:02:46;;;;;;;0.60;0.60;;;;;;;;;;5069592;28;20037;-76
2023/07/25 12:05:28;;;;;;;0.73;0.73;;;;;;;;;;5070396;28;20074;-76
2023/07/25 12:08:00;;;;;;;0.77;0.70;;;;;;;;;;5070652;28;20017;-76
2023/07/25 12:10:27;;;;;;;0.60;0.60;;;;;;;;;;5070150;28;20025;-76
2023/07/25 12:12:54;;;;;;;0.88;0.63;;;;;;;;;;5069843;28;20111;-76
2023/07/25 12:15:20;;;;;;;0.60;0.60;;;;;;;;;;5069831;28;20040;-76
2023/07/25 12:17:46;;;;;;;0.70;0.70;;;;;;;;;;5078307;28;20028;-77
2023/07/25 12:20:13;;;;;;;0.57;0.57;;;;;;;;;;5072729;28;20020;-76
2023/07/25 12:22:39;;;;;;;0.70;0.70;;;;;;;;;;5083147;28;20067;-75
2023/07/25 12:25:05;;;;;;;0.63;0.57;;;;;;;;;;5071503;28;20082;-75
2023/07/25 12:27:31;;;;;;;0.68;0.60;;;;;;;;;;5070022;28;20069;-75
2023/07/25 12:29:57;;;;;;;0.88;0.70;;;;;;;;;;5069924;28;20502;-74
2023/07/25 12:32:23;;;;;;;0.63;0.63;;;;;;;;;;5068708;28;20027;-75
2023/07/25 12:34:49;;;;;;;0.47;0.47;;;;;;;;;;5069906;28;20463;-74
2023/07/25 12:37:15;;;;;;;1.02;0.68;;;;;;;;;;5070275;28;20024;-75
2023/07/25 12:39:41;;;;;;;0.55;0.52;;;;;;;;;;5070216;28;20028;-76
2023/07/25 12:42:07;;;;;;;0.65;0.65;;;;;;;;;;5072737;28;20035;-76
2023/07/25 12:44:34;;;;;;;0.60;0.60;;;;;;;;;;5076930;28;20106;-76
2023/07/25 12:47:00;;;;;;;0.32;0.32;;;;;;;;;;5074809;28;20587;-76
2023/07/25 12:49:27;;;;;;;1.88;0.35;;;;;;;;;;5072168;28;20033;-76
2023/07/25 12:51:53;;;;;;;0.95;0.63;;;;;;;;;;5070131;28;20017;-76
2023/07/25 12:54:27;;;;;;;1.25;0.55;;;;;;;;;;5069813;28;20024;-76
2023/07/25 12:56:53;;;;;;;0.30;0.30;;;;;;;;;;5069160;28;20039;-76
2023/07/25 12:59:19;;;;;;;0.85;0.60;;;;;;;;;;5069658;28;20037;-76
2023/07/25 13:01:45;;;;;;;0.50;0.50;;;;;;;;;;5069417;28;20036;-76
2023/07/25 13:04:11;;;;;;;0.70;0.50;;;;;;;;;;5069999;28;20110;-76
2023/07/25 13:06:37;;;;;;;0.50;0.50;;;;;;;;;;5076637;28;20040;-76
2023/07/25 13:09:09;;;;;;;0.50;0.40;;;;;;;;;;5069590;28;20024;-75
2023/07/25 13:11:35;;;;;;;1.45;0.55;;;;;;;;;;5069424;28;20024;-76
2023/07/25 13:14:01;;;;;;;0.55;0.55;;;;;;;;;;5069627;28;20020;-75
2023/07/25 13:16:27;;;;;;;0.88;0.50;;;;;;;;;;5080003;28;20093;-76
2023/07/25 13:18:53;;;;;;;0.45;0.40;;;;;;;;;;5064623;28;20029;-76
2023/07/25 13:21:19;;;;;;;0.50;0.50;;;;;;;;;;5086323;28;20032;-76
2023/07/25 13:23:45;;;;;;;0.55;0.55;;;;;;;;;;5073238;28;20027;-76
2023/07/25 13:26:11;;;;;;;0.50;0.50;;;;;;;;;;5074502;28;20028;-76
2023/07/25 13:28:37;;;;;;;0.40;0.40;;;;;;;;;;5069093;28;20054;-76
2023/07/25 13:31:02;;;;;;;0.52;0.52;;;;;;;;;;5069271;28;20025;-77
2023/07/25 13:33:28;;;;;;;0.63;0.63;;;;;;;;;;5068785;28;20036;-77
2023/07/25 13:35:54;;;;;;;0.50;0.50;;;;;;;;;;5072931;28;20029;-76
2023/07/25 13:38:20;;;;;;;0.80;0.40;;;;;;;;;;5069097;28;20024;-76
2023/07/25 13:40:47;;;;;;;0.47;0.47;;;;;;;;;;5069179;28;20027;-76
2023/07/25 13:43:13;;;;;;;0.65;0.65;;;;;;;;;;5069034;28;20070;-76
2023/07/25 13:45:39;;;;;;;0.63;0.52;;;;;;;;;;5067681;28;20087;-75
2023/07/25 13:48:05;;;;;;;1.13;0.52;;;;;;;;;;5069083;28;20040;-76
2023/07/25 13:50:31;;;;;;;0.68;0.68;;;;;;;;;;5069008;28;20475;-76
2023/07/25 13:52:57;;;;;;;0.60;0.60;;;;;;;;;;5068938;28;20035;-76
2023/07/25 13:55:23;;;;;;;0.52;0.52;;;;;;;;;;5072884;28;20505;-76
2023/07/25 13:57:49;;;;;;;0.60;0.60;;;;;;;;;;5068883;28;20031;-76
2023/07/25 14:00:16;;;;;;;0.75;0.73;;;;;;;;;;5070421;28;20020;-76
2023/07/25 14:02:42;;;;;;;0.60;0.60;;;;;;;;;;5067672;28;20174;-75
2023/07/25 14:05:08;;;;;;;0.60;0.60;;;;;;;;;;5071279;28;20033;-76
2023/07/25 14:07:34;;;;;;;0.95;0.60;;;;;;;;;;5068627;28;20054;-76
2023/07/25 14:10:00;;;;;;;0.65;0.65;;;;;;;;;;5068629;28;20204;-75
2023/07/25 14:12:26;;;;;;;0.50;0.50;;;;;;;;;;5068531;28;20029;-76
2023/07/25 14:14:52;;;;;;;1.63;0.80;;;;;;;;;;5077773;28;20019;-75
2023/07/25 14:17:21;;;;;;;0.50;0.50;;;;;;;;;;5072820;28;20467;-75
2023/07/25 14:19:47;;;;;;;0.68;0.68;;;;;;;;;;5072407;28;20094;-75
2023/07/25 14:22:13;;;;;;;0.50;0.50;;;;;;;;;;5072678;28;20543;-75
2023/07/25 14:24:39;;;;;;;0.40;0.40;;;;;;;;;;5072898;28;20020;-75
2023/07/25 14:27:05;;;;;;;0.45;0.45;;;;;;;;;;5071969;28;20033;-76
2023/07/25 14:29:31;;;;;;;0.50;0.50;;;;;;;;;;5072308;28;20555;-74
2023/07/25 14:31:58;;;;;;;0.35;0.35;;;;;;;;;;5072624;28;20028;-75
2023/07/25 14:34:24;;;;;;;0.50;0.50;;;;;;;;;;5071738;28;20024;-76
2023/07/25 14:36:50;;;;;;;0.50;0.50;;;;;;;;;;5077612;28;20131;-76
2023/07/25 14:39:16;;;;;;;0.75;0.57;;;;;;;;;;5071849;28;20042;-83